createdAt,value
2023-02-12T00:00:25.126Z,18.73
2023-02-12T00:03:30.253Z,16.90
2023-02-12T00:06:34.143Z,17.83
2023-02-12T00:09:38.489Z,18.70
2023-02-12T00:12:42.157Z,16.00
2023-02-12T00:15:45.964Z,16.73
2023-02-12T00:18:55.213Z,17.50
2023-02-12T00:21:59.018Z,16.93
2023-02-12T00:25:02.724Z,16.07
2023-02-12T00:28:06.540Z,16.17
2023-02-12T00:31:12.932Z,18.33
2023-02-12T00:34:18.097Z,16.10
2023-02-12T00:37:21.794Z,17.33
2023-02-12T00:40:25.694Z,16.80
2023-02-12T00:43:29.378Z,19.43
2023-02-12T00:46:33.071Z,24.43
2023-02-12T00:49:38.170Z,18.60
2023-02-12T00:52:41.917Z,17.30
2023-02-12T00:55:45.586Z,19.43
2023-02-12T00:58:49.258Z,19.67
2023-02-12T01:01:55.449Z,16.60
2023-02-12T01:05:00.743Z,17.17
2023-02-12T01:08:05.231Z,16.03
2023-02-12T01:11:09.084Z,14.97
2023-02-12T01:14:12.852Z,17.23
2023-02-12T01:17:16.703Z,17.17
2023-02-12T01:20:25.671Z,14.60
2023-02-12T01:23:29.449Z,14.47
2023-02-12T01:26:33.966Z,15.03
2023-02-12T01:29:39.926Z,14.17
2023-02-12T01:32:44.145Z,14.80
2023-02-12T01:35:49.313Z,14.40
2023-02-12T01:38:53.552Z,14.27
2023-02-12T01:41:57.468Z,14.63
2023-02-12T01:45:46.706Z,12.93
2023-02-12T01:48:50.525Z,14.43
2023-02-12T01:52:03.946Z,14.37
2023-02-12T01:55:11.394Z,17.53
2023-02-12T01:58:16.127Z,16.27
2023-02-12T02:01:26.946Z,17.17
2023-02-12T02:04:38.028Z,16.37
2023-02-12T02:07:46.480Z,16.50
2023-02-12T02:10:50.219Z,15.27
2023-02-12T02:14:11.953Z,15.40
2023-02-12T02:17:53.073Z,15.00
2023-02-12T02:21:47.700Z,14.50
2023-02-12T02:25:35.653Z,14.53
2023-02-12T02:29:15.270Z,16.40
2023-02-12T02:32:25.961Z,17.07
2023-02-12T02:35:38.442Z,18.70
2023-02-12T02:38:50.813Z,18.63
2023-02-12T02:42:02.983Z,19.73
2023-02-12T02:45:15.208Z,19.13
2023-02-12T02:48:27.516Z,21.07
2023-02-12T02:51:37.125Z,20.30
2023-02-12T02:54:46.934Z,20.77
2023-02-12T02:57:57.210Z,21.97
2023-02-12T03:01:07.278Z,22.50
2023-02-12T03:04:21.270Z,23.63
2023-02-12T03:07:32.956Z,24.57
2023-02-12T03:10:43.923Z,25.33
2023-02-12T03:13:54.709Z,30.33
2023-02-12T03:17:04.076Z,27.30
2023-02-12T03:20:17.032Z,26.87
2023-02-12T03:23:29.111Z,30.33
2023-02-12T03:26:44.647Z,33.53
2023-02-12T03:29:48.926Z,32.73
2023-02-12T03:33:08.201Z,33.67
2023-02-12T03:36:28.575Z,31.27
2023-02-12T03:39:40.270Z,31.03
2023-02-12T03:42:59.143Z,29.83
2023-02-12T03:46:29.410Z,25.93
2023-02-12T03:49:39.774Z,28.50
2023-02-12T03:52:51.936Z,27.90
2023-02-12T03:56:11.062Z,26.67
2023-02-12T03:59:27.417Z,27.13
2023-02-12T04:02:43.115Z,26.83
2023-02-12T04:05:49.149Z,26.27
2023-02-12T04:09:09.152Z,26.60
2023-02-12T04:12:40.254Z,26.43
2023-02-12T04:16:06.763Z,25.93
2023-02-12T04:19:16.281Z,26.30
2023-02-12T04:22:46.592Z,26.00
2023-02-12T04:26:03.730Z,28.70
2023-02-12T04:29:20.522Z,27.90
2023-02-12T04:32:34.154Z,32.00
2023-02-12T04:35:48.912Z,30.57
2023-02-12T04:38:57.667Z,29.67
2023-02-12T04:42:04.174Z,29.40
2023-02-12T04:45:11.304Z,28.17
2023-02-12T04:48:15.118Z,28.83
2023-02-12T04:51:18.769Z,26.53
2023-02-12T04:54:24.297Z,27.00
2023-02-12T04:57:31.589Z,30.97
2023-02-12T05:00:35.640Z,30.00
2023-02-12T05:03:39.604Z,30.00
2023-02-12T05:06:49.684Z,24.27
2023-02-12T05:09:53.366Z,26.47
2023-02-12T05:12:58.484Z,30.90
2023-02-12T05:16:05.613Z,26.13
2023-02-12T05:19:10.023Z,25.87
2023-02-12T05:22:14.438Z,28.50
2023-02-12T05:25:18.139Z,26.23
2023-02-12T05:28:23.263Z,24.60
2023-02-12T05:31:27.072Z,26.20
2023-02-12T05:34:31.102Z,24.10
2023-02-12T05:37:36.788Z,25.47
2023-02-12T05:40:41.144Z,24.27
2023-02-12T05:43:49.557Z,25.07
2023-02-12T05:46:53.634Z,24.80
2023-02-12T05:49:57.496Z,26.13
2023-02-12T05:53:01.877Z,25.70
2023-02-12T05:56:15.726Z,24.20
2023-02-12T05:59:24.096Z,26.10
2023-02-12T06:02:29.318Z,25.97
2023-02-12T06:05:33.055Z,26.17
2023-02-12T06:08:37.268Z,27.03
2023-02-12T06:11:41.530Z,28.73
2023-02-12T06:14:46.770Z,27.60
2023-02-12T06:17:50.583Z,27.20
2023-02-12T06:20:55.694Z,25.90
2023-02-12T06:23:59.921Z,26.63
2023-02-12T06:27:03.908Z,23.97
2023-02-12T06:30:10.916Z,24.03
2023-02-12T06:33:14.787Z,24.10
2023-02-12T06:36:19.283Z,21.43
2023-02-12T06:39:22.984Z,20.97
2023-02-12T06:42:26.758Z,20.10
2023-02-12T06:45:31.811Z,18.90
2023-02-12T06:48:36.112Z,19.70
2023-02-12T06:51:41.364Z,17.30
2023-02-12T06:54:45.108Z,19.73
2023-02-12T06:57:50.100Z,18.90
2023-02-12T07:00:55.449Z,19.93
2023-02-12T07:04:03.681Z,20.97
2023-02-12T07:07:08.127Z,21.63
2023-02-12T07:10:12.470Z,21.37
2023-02-12T07:13:16.327Z,21.43
2023-02-12T07:16:21.752Z,21.40
2023-02-12T07:19:25.853Z,20.47
2023-02-12T07:22:29.548Z,21.00
2023-02-12T07:25:33.433Z,20.57
2023-02-12T07:28:38.498Z,21.80
2023-02-12T07:31:45.028Z,23.73
2023-02-12T07:34:49.117Z,22.53
2023-02-12T07:37:53.385Z,21.97
2023-02-12T07:41:13.777Z,21.30
2023-02-12T07:44:18.153Z,20.73
2023-02-12T07:47:26.134Z,20.80
2023-02-12T07:50:29.921Z,20.70
2023-02-12T07:53:37.777Z,19.87
2023-02-12T07:56:47.120Z,18.67
2023-02-12T07:59:51.373Z,18.13
2023-02-12T08:02:56.503Z,17.83
2023-02-12T08:06:00.256Z,17.10
2023-02-12T08:09:08.263Z,15.97
2023-02-12T08:12:12.013Z,14.67
2023-02-12T08:15:16.073Z,16.23
2023-02-12T08:18:21.323Z,15.60
2023-02-12T08:21:27.270Z,16.90
2023-02-12T08:24:31.873Z,17.07
2023-02-12T08:27:35.648Z,15.83
2023-02-12T08:30:39.418Z,16.97
2023-02-12T08:33:47.007Z,17.87
2023-02-12T08:36:54.073Z,17.47
2023-02-12T08:39:57.904Z,17.33
2023-02-12T08:43:01.675Z,18.03
2023-02-12T08:46:08.566Z,18.43
2023-02-12T08:49:17.211Z,19.23
2023-02-12T08:52:20.879Z,18.93
2023-02-12T08:55:24.576Z,23.10
2023-02-12T08:58:28.446Z,27.13
2023-02-12T09:01:35.837Z,22.27
2023-02-12T09:04:41.276Z,19.33
2023-02-12T09:07:44.982Z,19.67
2023-02-12T09:10:48.799Z,21.47
2023-02-12T09:13:52.709Z,20.83
2023-02-12T09:16:58.479Z,19.90
2023-02-12T09:20:03.653Z,19.87
2023-02-12T09:23:07.556Z,19.60
2023-02-12T09:26:15.327Z,19.10
2023-02-12T09:29:19.085Z,19.97
2023-02-12T09:32:22.784Z,18.40
2023-02-12T09:35:27.984Z,19.97
2023-02-12T09:38:32.520Z,19.20
2023-02-12T09:42:45.340Z,18.03
2023-02-12T09:45:59.667Z,15.53
2023-02-12T09:49:11.813Z,14.40
2023-02-12T09:52:20.955Z,12.90
2023-02-12T09:55:30.935Z,13.40
2023-02-12T09:58:43.853Z,16.00
2023-02-12T10:01:47.709Z,17.47
2023-02-12T10:05:01.094Z,17.10
2023-02-12T10:08:38.437Z,16.53
2023-02-12T10:12:01.800Z,18.20
2023-02-12T10:15:34.007Z,17.50
2023-02-12T10:19:14.524Z,18.57
2023-02-12T10:22:32.539Z,19.43
2023-02-12T10:25:51.621Z,19.43
2023-02-12T10:29:01.497Z,19.83
2023-02-12T10:32:14.627Z,20.97
2023-02-12T10:35:22.465Z,21.63
2023-02-12T10:38:33.914Z,20.77
2023-02-12T10:41:46.942Z,23.40
2023-02-12T10:44:50.803Z,21.40
2023-02-12T10:48:07.326Z,23.27
2023-02-12T10:51:37.956Z,22.80
2023-02-12T10:54:44.662Z,23.87
2023-02-12T10:57:49.839Z,22.40
2023-02-12T11:00:59.976Z,20.43
2023-02-12T11:04:26.224Z,19.50
2023-02-12T11:07:30.490Z,19.73
2023-02-12T11:10:39.736Z,20.73
2023-02-12T11:13:54.899Z,19.87
2023-02-12T11:17:02.742Z,17.43
2023-02-12T11:20:25.551Z,15.67
2023-02-12T11:23:32.280Z,14.60
2023-02-12T11:26:36.031Z,13.80
2023-02-12T11:29:42.070Z,11.57
2023-02-12T11:32:46.644Z,11.20
2023-02-12T11:35:56.952Z,11.90
2023-02-12T11:39:02.404Z,10.10
2023-02-12T11:42:16.620Z,9.93
2023-02-12T11:45:31.336Z,5.70
2023-02-12T11:48:39.317Z,5.77
2023-02-12T11:51:43.038Z,6.57
2023-02-12T11:54:51.810Z,6.77
2023-02-12T11:58:04.259Z,7.10
2023-02-12T12:01:20.272Z,6.93
2023-02-12T12:04:27.037Z,4.27
2023-02-12T12:07:38.114Z,4.60
2023-02-12T12:10:50.183Z,3.93
2023-02-12T12:14:02.851Z,3.83
2023-02-12T12:17:33.855Z,4.17
2023-02-12T12:20:48.401Z,5.83
2023-02-12T12:23:59.838Z,4.37
2023-02-12T12:27:39.233Z,4.13
2023-02-12T12:31:01.162Z,10.83
2023-02-12T12:34:11.551Z,12.47
2023-02-12T12:37:35.602Z,17.20
2023-02-12T12:41:03.536Z,20.99
2023-02-12T12:44:31.676Z,21.73
2023-02-12T12:48:03.491Z,22.53
2023-02-12T12:51:31.640Z,22.30
2023-02-12T12:55:07.583Z,20.60
2023-02-12T12:58:22.083Z,16.90
2023-02-12T13:02:00.639Z,23.83
2023-02-12T13:06:03.915Z,25.67
2023-02-12T13:09:45.285Z,29.10
2023-02-12T13:13:11.120Z,30.67
2023-02-12T13:16:23.288Z,31.70
2023-02-12T13:19:44.673Z,29.57
2023-02-12T13:23:00.566Z,29.30
2023-02-12T13:26:17.656Z,29.23
2023-02-12T13:29:27.447Z,25.47
2023-02-12T13:32:37.459Z,18.87
2023-02-12T13:35:48.413Z,9.93
2023-02-12T13:39:01.351Z,8.40
2023-02-12T13:42:40.925Z,6.97
2023-02-12T13:45:57.181Z,9.00
2023-02-12T13:49:19.573Z,9.30
2023-02-12T13:52:36.499Z,8.87
2023-02-12T13:56:03.062Z,10.03
2023-02-12T13:59:49.198Z,9.83
2023-02-12T14:02:54.367Z,10.67
2023-02-12T14:06:17.405Z,10.13
2023-02-12T14:09:30.051Z,7.27
2023-02-12T14:12:43.206Z,8.10
2023-02-12T14:15:52.685Z,7.77
2023-02-12T14:19:56.437Z,6.67
2023-02-12T14:23:24.452Z,6.00
2023-02-12T14:26:38.032Z,6.20
2023-02-12T14:29:42.151Z,6.80
2023-02-12T14:33:23.230Z,8.10
2023-02-12T14:36:41.906Z,8.10
2023-02-12T14:39:46.804Z,9.30
2023-02-12T14:42:58.354Z,9.63
2023-02-12T14:46:45.595Z,10.33
2023-02-12T14:49:56.409Z,10.13
2023-02-12T14:53:23.799Z,10.27
2023-02-12T14:56:28.756Z,11.10
2023-02-12T14:59:41.426Z,11.27
2023-02-12T15:02:53.627Z,11.73
2023-02-12T15:06:08.590Z,12.93
2023-02-12T15:09:22.333Z,13.97
2023-02-12T15:12:40.648Z,14.93
2023-02-12T15:15:55.401Z,14.90
2023-02-12T15:19:07.508Z,16.17
2023-02-12T15:22:31.362Z,16.30
2023-02-12T15:25:35.570Z,15.63
2023-02-12T15:28:41.845Z,14.33
2023-02-12T15:31:51.645Z,13.43
2023-02-12T15:34:57.476Z,13.30
2023-02-12T15:38:07.651Z,13.63
2023-02-12T15:41:29.602Z,12.57
2023-02-12T15:44:38.427Z,12.27
2023-02-12T15:47:43.564Z,12.30
2023-02-12T15:50:54.790Z,12.23
2023-02-12T15:54:05.343Z,12.43
2023-02-12T15:57:20.763Z,13.47
2023-02-12T16:00:40.898Z,11.10
2023-02-12T16:03:45.394Z,12.77
2023-02-12T16:06:51.273Z,11.50
2023-02-12T16:09:59.127Z,10.37
2023-02-12T16:13:03.167Z,12.17
2023-02-12T16:16:19.931Z,11.07
2023-02-12T16:19:27.757Z,10.97
2023-02-12T16:22:38.457Z,11.13
2023-02-12T16:25:43.685Z,11.50
2023-02-12T16:28:50.664Z,10.90
2023-02-12T16:31:59.011Z,11.43
2023-02-12T16:35:07.762Z,11.20
2023-02-12T16:38:43.768Z,11.73
2023-02-12T16:41:57.900Z,11.63
2023-02-12T16:45:01.805Z,13.57
2023-02-12T16:48:17.222Z,17.50
2023-02-12T16:51:30.082Z,17.50
2023-02-12T16:54:36.206Z,15.57
2023-02-12T16:57:41.662Z,13.40
2023-02-12T17:00:45.841Z,13.07
2023-02-12T17:03:51.142Z,12.17
2023-02-12T17:06:55.094Z,11.80
2023-02-12T17:09:59.094Z,12.43
2023-02-12T17:13:04.252Z,12.40
2023-02-12T17:16:09.072Z,13.47
2023-02-12T17:19:14.314Z,13.67
2023-02-12T17:22:25.830Z,14.87
2023-02-12T17:25:30.384Z,14.13
2023-02-12T17:28:35.757Z,13.93
2023-02-12T17:31:39.796Z,13.37
2023-02-12T17:34:49.126Z,14.23
2023-02-12T17:37:53.145Z,13.33
2023-02-12T17:40:57.098Z,14.40
2023-02-12T17:44:03.417Z,15.03
2023-02-12T17:47:07.546Z,15.47
2023-02-12T17:50:14.599Z,15.17
2023-02-12T17:53:23.562Z,15.93
2023-02-12T17:56:35.508Z,15.70
2023-02-12T17:59:53.910Z,15.57
2023-02-12T18:03:12.364Z,14.63
2023-02-12T18:06:36.143Z,15.13
2023-02-12T18:10:00.018Z,15.00
2023-02-12T18:13:17.658Z,14.77
2023-02-12T18:16:50.099Z,14.50
2023-02-12T18:20:11.638Z,14.27
2023-02-12T18:23:34.319Z,14.83
2023-02-12T18:27:10.758Z,15.10
2023-02-12T18:30:36.416Z,16.57
2023-02-12T18:34:02.180Z,17.03
2023-02-12T18:37:15.704Z,18.87
2023-02-12T18:40:43.548Z,19.63
2023-02-12T18:44:06.273Z,16.33
2023-02-12T18:47:31.316Z,16.13
2023-02-12T18:50:53.711Z,13.93
2023-02-12T18:54:23.788Z,15.33
2023-02-12T18:58:23.430Z,16.43
2023-02-12T19:01:39.715Z,16.13
2023-02-12T19:04:57.848Z,16.90
2023-02-12T19:08:25.274Z,17.03
2023-02-12T19:12:01.463Z,16.50
2023-02-12T19:15:11.633Z,15.87
2023-02-12T19:18:16.764Z,16.20
2023-02-12T19:21:20.532Z,16.47
2023-02-12T19:24:28.680Z,16.37
2023-02-12T19:27:38.851Z,17.80
2023-02-12T19:30:43.366Z,17.33
2023-02-12T19:33:48.529Z,17.03
2023-02-12T19:36:52.669Z,16.30
2023-02-12T19:39:58.045Z,17.30
2023-02-12T19:43:01.769Z,18.27
2023-02-12T19:46:08.537Z,17.27
2023-02-12T19:49:17.793Z,19.77
2023-02-12T19:52:21.774Z,17.97
2023-02-12T19:55:27.208Z,17.80
2023-02-12T19:58:31.968Z,20.13
2023-02-12T20:01:36.476Z,19.67
2023-02-12T20:04:40.651Z,18.73
2023-02-12T20:07:44.444Z,18.50
2023-02-12T20:10:49.567Z,19.83
2023-02-12T20:13:53.686Z,20.13
2023-02-12T20:16:58.920Z,18.13
2023-02-12T20:20:02.711Z,17.47
2023-02-12T20:23:06.567Z,17.53
2023-02-12T20:26:15.528Z,16.33
2023-02-12T20:29:19.297Z,15.87
2023-02-12T20:32:23.091Z,14.97
2023-02-12T20:35:26.900Z,16.87
2023-02-12T20:38:30.751Z,16.77
2023-02-12T20:41:37.539Z,14.43
2023-02-12T20:44:41.311Z,14.47
2023-02-12T20:47:45.142Z,14.03
2023-02-12T20:50:49.006Z,12.77
2023-02-12T20:53:54.215Z,15.43
2023-02-12T20:56:59.380Z,14.23
2023-02-12T21:00:03.649Z,15.37
2023-02-12T21:03:12.281Z,15.60
2023-02-12T21:07:17.022Z,15.03
2023-02-12T21:11:11.431Z,17.03
2023-02-12T21:15:25.230Z,13.47
2023-02-12T21:19:29.197Z,14.93
2023-02-12T21:23:31.598Z,16.00
2023-02-12T21:27:35.036Z,16.47
2023-02-12T21:36:03.816Z,15.67
2023-02-12T21:40:24.755Z,14.47
2023-02-12T21:44:56.914Z,16.13
2023-02-12T21:49:06.087Z,17.00
2023-02-12T21:52:21.288Z,17.80
2023-02-12T21:56:16.831Z,16.97
2023-02-12T22:00:08.981Z,16.93
2023-02-12T22:04:17.966Z,18.60
2023-02-12T22:08:22.775Z,15.97
2023-02-12T22:12:23.767Z,16.17
2023-02-12T22:16:22.048Z,14.97
2023-02-12T22:20:26.336Z,15.27
2023-02-12T22:24:18.469Z,14.73
2023-02-12T22:28:04.208Z,13.50
2023-02-12T22:32:03.585Z,13.07
2023-02-12T22:35:21.272Z,13.37
2023-02-12T22:38:25.229Z,10.80
2023-02-12T22:41:30.519Z,10.87
2023-02-12T22:44:34.572Z,11.37
2023-02-12T22:47:38.439Z,10.60
2023-02-12T22:50:43.700Z,12.03
2023-02-12T22:53:47.976Z,12.23
2023-02-12T22:56:53.302Z,12.47
2023-02-12T22:59:57.068Z,12.90
2023-02-12T23:03:00.988Z,12.73
2023-02-12T23:06:09.183Z,12.67
2023-02-12T23:09:16.972Z,13.67
2023-02-12T23:12:20.716Z,13.00
2023-02-12T23:15:24.567Z,13.17
2023-02-12T23:18:28.386Z,12.80
2023-02-12T23:21:33.914Z,12.73
2023-02-12T23:25:23.063Z,14.07
2023-02-12T23:29:15.569Z,11.63
2023-02-12T23:33:10.538Z,13.90
2023-02-12T23:37:12.571Z,12.13
2023-02-12T23:41:15.842Z,12.93
2023-02-12T23:45:12.209Z,11.47
2023-02-12T23:49:19.824Z,13.03
2023-02-12T23:53:27.944Z,12.47
2023-02-12T23:57:28.228Z,13.03
